Time;durP1;ratioP1;P1;durP2;ratioP2;P2;SDS_P1;SDS_P2;PMS_P1;PMS_P2;Temp;Humidity;BMP_temperature;BMP_pressure;BME280_temperature;BME280_humidity;BME280_pressure;Samples;Min_cycle;Max_cycle;Signal;HPM_P1;HPM_P2
2022/04/24 00:09:26;;;;;;;5.30;4.07;;;;;;;11.33;52.81;100095.06;5066262;28;20129;-94
2022/04/24 00:11:51;;;;;;;6.45;4.10;;;;;;;11.40;53.23;100113.50;5084272;28;20032;-95
2022/04/24 00:14:35;;;;;;;;;;;;;;;;;;;;;
2022/04/24 00:17:20;;;;;;;4.95;3.90;;;;;;;11.25;52.92;100109.88;5077112;28;20107;-95
2022/04/24 00:19:58;;;;;;;4.88;4.38;;;;;;;11.01;53.75;100088.34;5075491;28;20020;-96
2022/04/24 00:22:23;;;;;;;5.38;4.07;;;;;;;10.96;54.85;100107.91;5074817;28;20237;-95
2022/04/24 00:28:20;;;;;;;5.25;4.25;;;;;;;10.71;55.47;100087.41;4953078;29;20042;-94
2022/04/24 00:30:58;;;;;;;5.50;4.40;;;;;;;10.58;55.30;100083.50;5023511;23;20045;-94
2022/04/24 00:33:23;;;;;;;4.82;4.07;;;;;;;10.51;55.88;100073.06;5012508;28;20080;-94
2022/04/24 00:35:49;;;;;;;4.50;4.10;;;;;;;10.40;56.44;100083.03;5013792;28;20081;-94
2022/04/24 00:38:26;;;;;;;6.53;4.50;;;;;;;10.31;56.13;100071.25;5026564;28;20029;-95
2022/04/24 00:40:54;;;;;;;5.83;4.43;;;;;;;10.26;57.41;100080.13;5033815;28;20029;-95
2022/04/24 00:43:19;;;;;;;5.15;4.35;;;;;;;10.25;56.92;100088.41;5032903;28;20076;-95
2022/04/24 00:45:50;;;;;;;4.80;4.30;;;;;;;10.17;57.10;100080.94;5030393;28;20056;-94
2022/04/24 00:48:50;;;;;;;5.83;4.67;;;;;;;10.17;57.24;100097.00;5031678;28;20029;-95
2022/04/24 00:51:19;;;;;;;4.97;4.47;;;;;;;10.02;58.05;100079.94;5065534;23;20318;-94
2022/04/24 00:56:20;;;;;;;5.38;4.70;;;;;;;9.91;58.59;100094.38;5093704;22;20063;-94
2022/04/24 01:02:13;;;;;;;5.30;4.53;;;;;;;9.68;59.22;100085.84;5054202;23;20173;-95
2022/04/24 01:05:18;;;;;;;6.30;5.03;;;;;;;9.67;58.93;100090.41;5067799;28;20085;-96
2022/04/24 01:07:43;;;;;;;5.47;4.50;;;;;;;9.61;59.76;100091.50;5104556;23;20336;-94
2022/04/24 01:10:08;;;;;;;4.97;4.47;;;;;;;9.60;60.61;100084.53;5080464;28;20219;-95
2022/04/24 01:12:34;;;;;;;5.43;4.60;;;;;;;9.53;60.01;100089.38;5097620;28;20082;-95
2022/04/24 01:14:59;;;;;;;5.57;4.77;;;;;;;9.50;60.67;100096.03;5094007;28;20074;-96
2022/04/24 01:17:26;;;;;;;5.38;4.70;;;;;;;9.43;60.95;100090.19;5092727;28;20045;-93
2022/04/24 01:19:53;;;;;;;7.85;4.53;;;;;;;9.34;61.59;100092.59;5096639;28;20032;-94
2022/04/24 01:22:18;;;;;;;8.93;4.97;;;;;;;9.27;61.40;100096.59;5097304;28;20020;-95
2022/04/24 01:24:44;;;;;;;5.80;5.20;;;;;;;9.27;61.73;100096.59;5095878;28;20838;-94
2022/04/24 01:27:09;;;;;;;6.47;5.10;;;;;;;9.26;61.62;100100.34;5095951;28;20629;-95
2022/04/24 01:29:34;;;;;;;5.50;4.10;;;;;;;9.20;61.84;100097.66;5095678;28;20108;-94
2022/04/24 01:31:59;;;;;;;6.27;5.37;;;;;;;9.20;62.07;100103.00;5096224;28;20562;-94
2022/04/24 01:34:25;;;;;;;8.10;5.07;;;;;;;9.24;62.12;100104.06;5093739;28;20050;-93
2022/04/24 01:36:50;;;;;;;7.03;5.50;;;;;;;9.20;62.01;100099.53;5097428;28;20032;-95
2022/04/24 01:39:15;;;;;;;5.60;5.00;;;;;;;9.24;62.02;100097.91;5098333;28;20398;-95
2022/04/24 01:41:41;;;;;;;5.80;5.10;;;;;;;9.19;62.44;100100.59;5095687;28;20907;-95
2022/04/24 01:44:06;;;;;;;7.32;4.75;;;;;;;9.15;62.15;100100.31;5098068;28;20036;-94
2022/04/24 01:46:33;;;;;;;6.17;5.33;;;;;;;9.11;62.64;100101.13;5106460;28;20063;-95
2022/04/24 01:48:58;;;;;;;7.65;5.22;;;;;;;9.12;62.56;100095.53;5097419;28;20032;-95
2022/04/24 01:51:24;;;;;;;5.63;5.03;;;;;;;9.10;62.50;100105.69;5093660;28;20036;-95
2022/04/24 02:40:29;;;;;;;5.32;4.80;;;;;;;8.97;62.76;100092.81;5917625;22;20063;-96
2022/04/24 02:42:55;;;;;;;4.80;4.07;;;;;;;8.97;62.72;100082.13;5098135;28;20024;-95
2022/04/24 02:45:21;;;;;;;6.72;5.93;;;;;;;9.00;63.35;100097.63;5096855;28;20035;-96
2022/04/24 02:47:47;;;;;;;6.23;4.87;;;;;;;8.89;62.94;100078.91;5095922;28;20020;-96
2022/04/24 02:50:23;;;;;;;7.35;5.70;;;;;;;8.90;62.94;100077.84;5096776;28;20005;-96
2022/04/24 02:53:15;;;;;;;7.75;5.95;;;;;;;9.01;62.83;100088.53;5099161;28;20009;-96
2022/04/24 02:55:42;;;;;;;7.50;6.20;;;;;;;9.19;62.90;100103.28;5097591;28;20040;-96
2022/04/24 02:58:14;;;;;;;6.45;5.40;;;;;;;9.18;62.44;100101.66;5098379;28;20034;-96
2022/04/24 03:00:42;;;;;;;7.57;5.55;;;;;;;9.22;62.51;100103.53;5096845;28;20087;-96
2022/04/24 03:03:08;;;;;;;6.47;5.35;;;;;;;9.23;62.19;100098.97;5091228;28;20024;-96
2022/04/24 03:05:35;;;;;;;7.15;6.10;;;;;;;9.18;62.31;100094.44;5098275;28;20012;-96
2022/04/24 03:08:01;;;;;;;8.50;6.10;;;;;;;9.06;62.44;100080.53;5096399;28;20032;-96
2022/04/24 03:15:33;;;;;;;9.85;6.18;;;;;;;8.78;63.98;100093.28;5089565;28;20045;-96
2022/04/24 03:17:59;;;;;;;8.27;6.40;;;;;;;8.78;63.68;100115.50;5089574;28;20025;-96
2022/04/24 03:20:38;;;;;;;7.10;6.40;;;;;;;8.72;63.56;100103.19;5081415;28;20024;-95
2022/04/24 03:23:04;;;;;;;7.93;6.30;;;;;;;8.60;64.49;100100.72;5097487;28;20028;-96
2022/04/24 03:25:30;;;;;;;6.70;5.95;;;;;;;8.41;64.91;100086.22;5083971;28;20019;-96
2022/04/24 03:27:55;;;;;;;9.50;6.43;;;;;;;8.32;65.69;100084.06;5168834;22;20094;-96
2022/04/24 03:30:21;;;;;;;8.68;6.72;;;;;;;8.25;66.03;100093.38;5087913;28;20029;-96
2022/04/24 03:32:47;;;;;;;8.07;6.43;;;;;;;8.20;65.97;100096.81;5096227;28;20071;-96
2022/04/24 03:35:12;;;;;;;9.27;6.83;;;;;;;8.17;66.31;100092.00;5099570;28;20317;-96
2022/04/24 03:37:39;;;;;;;7.93;6.60;;;;;;;7.99;66.73;100071.88;5083351;28;20033;-96
2022/04/24 03:40:13;;;;;;;10.93;7.20;;;;;;;8.06;66.60;100111.66;5089726;28;20057;-96
2022/04/24 03:42:38;;;;;;;18.27;7.50;;;;;;;7.93;67.61;100103.06;5090338;28;20047;-96
2022/04/24 03:45:08;;;;;;;7.63;6.72;;;;;;;7.81;67.78;100094.47;5102716;28;20016;-96
2022/04/24 03:47:35;;;;;;;8.35;6.95;;;;;;;7.79;68.03;100101.91;5066152;28;20040;-96
2022/04/24 03:50:00;;;;;;;9.73;7.30;;;;;;;7.81;68.61;100105.91;5047283;28;20021;-96
2022/04/24 03:52:26;;;;;;;7.60;6.30;;;;;;;7.84;68.16;100107.28;5063120;28;20055;-96
2022/04/24 03:54:52;;;;;;;10.13;7.50;;;;;;;7.68;68.86;100101.81;5069079;28;20465;-96
2022/04/24 03:57:17;;;;;;;10.73;6.75;;;;;;;7.59;69.13;100098.03;5069971;28;20033;-96
2022/04/24 04:00:12;;;;;;;9.40;6.90;;;;;;;7.56;68.85;100098.56;5066937;28;20023;-96
2022/04/24 04:02:47;;;;;;;9.25;6.95;;;;;;;7.40;69.71;100079.78;5058014;28;20033;-96
2022/04/24 04:05:17;;;;;;;9.27;6.90;;;;;;;7.50;69.47;100088.91;5073430;28;20033;-96
2022/04/24 04:07:43;;;;;;;8.82;7.03;;;;;;;7.52;70.15;100105.44;5078138;28;20055;-96
2022/04/24 04:10:32;;;;;;;;;;;;;;;;;;;;;
2022/04/24 04:13:09;;;;;;;9.30;7.10;;;;;;;7.37;70.58;100096.28;5069794;28;20086;-96
2022/04/24 04:15:36;;;;;;;9.75;7.03;;;;;;;7.39;70.84;100093.38;5091559;28;20016;-96
2022/04/24 04:18:02;;;;;;;10.88;7.03;;;;;;;7.38;71.37;100110.41;5072755;28;20029;-96
2022/04/24 04:20:31;;;;;;;8.40;7.05;;;;;;;7.25;71.98;100093.78;5084966;28;20013;-96
2022/04/24 04:22:58;;;;;;;13.13;7.05;;;;;;;7.33;71.43;100099.69;5066376;28;20092;-96
2022/04/24 04:25:24;;;;;;;9.95;6.93;;;;;;;7.21;72.14;100094.53;5094882;28;20020;-96
2022/04/24 04:27:52;;;;;;;8.65;6.70;;;;;;;7.31;72.33;100104.47;5080282;28;20040;-96
2022/04/24 04:30:18;;;;;;;11.93;7.10;;;;;;;7.22;72.15;100102.25;5088309;28;20025;-96
2022/04/24 04:32:45;;;;;;;8.93;7.00;;;;;;;7.18;72.48;100098.53;5091966;28;20005;-96
2022/04/24 04:35:11;;;;;;;8.17;5.90;;;;;;;7.17;72.22;100102.25;5081266;28;20116;-96
2022/04/24 04:37:39;;;;;;;10.50;6.80;;;;;;;7.16;73.16;100099.81;5096969;28;20317;-96
2022/04/24 04:40:06;;;;;;;12.18;6.90;;;;;;;7.26;72.67;100113.25;5098880;28;20076;-96
2022/04/24 04:42:31;;;;;;;10.45;5.95;;;;;;;7.32;72.13;100130.06;5072258;28;20078;-96
2022/04/24 04:45:00;;;;;;;13.23;7.32;;;;;;;7.28;72.37;100114.59;5082533;28;20463;-96
2022/04/24 04:47:38;;;;;;;9.93;7.03;;;;;;;7.37;72.56;100138.91;5091936;28;20017;-96
2022/04/24 04:50:04;;;;;;;10.82;7.10;;;;;;;7.31;72.64;100123.13;5077553;28;20119;-96
2022/04/24 04:52:30;;;;;;;8.87;6.47;;;;;;;7.29;72.46;100126.06;5080901;28;20044;-96
2022/04/24 04:54:55;;;;;;;11.97;6.43;;;;;;;7.27;73.08;100117.53;5081022;28;20278;-96
2022/04/24 05:05:29;;;;;;;10.15;6.90;;;;;;;7.36;73.25;100141.84;5152976;22;20058;-86
2022/04/24 05:07:55;;;;;;;9.23;6.50;;;;;;;7.35;73.23;100151.69;5076655;28;20020;-85
2022/04/24 05:10:20;;;;;;;8.77;6.10;;;;;;;7.37;73.11;100160.25;5092101;28;20031;-84
2022/04/24 05:12:45;;;;;;;8.97;6.10;;;;;;;7.43;73.15;100156.56;5079503;28;20068;-87
2022/04/24 05:15:13;;;;;;;8.20;5.43;;;;;;;7.45;72.69;100158.19;5074016;28;20027;-87
2022/04/24 05:17:40;;;;;;;10.77;6.85;;;;;;;7.53;72.93;100157.72;5046610;28;20039;-86
2022/04/24 05:20:07;;;;;;;9.43;6.20;;;;;;;7.53;72.92;100168.38;5088488;28;20032;-86
2022/04/24 05:22:33;;;;;;;8.27;6.32;;;;;;;7.65;72.55;100168.22;5073237;28;20111;-84
2022/04/24 05:24:58;;;;;;;8.95;6.40;;;;;;;7.75;72.36;100170.97;5082461;28;20099;-85
2022/04/24 05:27:24;;;;;;;9.77;5.90;;;;;;;7.87;71.82;100165.44;5093069;28;20070;-85
2022/04/24 05:29:49;;;;;;;8.17;5.67;;;;;;;7.95;71.41;100167.66;5064503;28;20021;-85
2022/04/24 05:32:15;;;;;;;7.67;6.00;;;;;;;8.02;71.27;100167.41;5076938;28;20338;-85
2022/04/24 05:34:41;;;;;;;10.07;6.17;;;;;;;8.08;71.17;100168.25;5071059;28;20033;-85
2022/04/24 05:37:06;;;;;;;7.35;5.80;;;;;;;8.09;70.63;100167.19;5085800;28;20122;-85
2022/04/24 05:39:32;;;;;;;8.60;6.37;;;;;;;8.14;70.70;100177.91;5088997;28;20382;-85
2022/04/24 05:41:58;;;;;;;8.85;6.00;;;;;;;8.15;70.32;100174.97;5088171;28;20016;-85
2022/04/24 05:44:23;;;;;;;8.23;5.90;;;;;;;8.22;69.90;100171.28;5092184;28;20119;-85
2022/04/24 05:46:48;;;;;;;10.63;5.83;;;;;;;8.26;69.99;100181.19;5092682;28;20093;-85
2022/04/24 05:49:14;;;;;;;7.83;5.90;;;;;;;8.32;69.74;100180.16;5073863;28;20025;-85
2022/04/24 05:51:39;;;;;;;8.00;6.17;;;;;;;8.41;69.75;100176.97;5082490;28;20025;-85
2022/04/24 05:54:04;;;;;;;7.97;5.67;;;;;;;8.47;69.58;100183.97;5087003;28;20131;-85
2022/04/24 05:56:29;;;;;;;9.03;6.20;;;;;;;8.54;68.97;100186.44;5073733;28;20032;-85
2022/04/24 05:58:55;;;;;;;8.23;5.93;;;;;;;8.59;68.68;100189.13;5090590;28;20139;-86
2022/04/24 06:01:20;;;;;;;11.47;5.97;;;;;;;8.62;68.50;100189.41;5081391;28;20012;-85
2022/04/24 06:03:45;;;;;;;7.50;5.90;;;;;;;8.73;68.01;100187.59;5070733;28;20178;-85
2022/04/24 06:06:11;;;;;;;10.00;6.10;;;;;;;8.76;67.60;100186.28;5096867;28;20074;-86
2022/04/24 06:08:36;;;;;;;10.70;5.90;;;;;;;8.85;67.78;100195.38;5092161;28;20088;-86
2022/04/24 06:11:01;;;;;;;7.13;5.43;;;;;;;8.92;67.80;100189.78;5101816;28;20028;-88
2022/04/24 06:13:27;;;;;;;10.85;5.50;;;;;;;9.00;66.70;100199.16;5069433;28;20223;-87
2022/04/24 06:15:57;;;;;;;9.00;5.37;;;;;;;9.06;66.95;100192.78;5089815;28;20038;-87
2022/04/24 06:18:23;;;;;;;7.80;5.50;;;;;;;9.12;66.54;100202.44;5098792;28;20111;-88
2022/04/24 06:20:49;;;;;;;9.07;5.70;;;;;;;9.19;66.36;100192.28;5070343;28;20025;-88
2022/04/24 06:23:15;;;;;;;10.45;5.18;;;;;;;9.30;65.10;100203.00;5093656;28;20051;-87
2022/04/24 06:25:40;;;;;;;6.87;5.63;;;;;;;9.34;64.96;100206.75;5085528;28;20024;-87
2022/04/24 06:28:06;;;;;;;7.77;5.30;;;;;;;9.38;65.27;100205.16;5071233;28;20048;-87
2022/04/24 06:30:32;;;;;;;12.10;5.40;;;;;;;9.45;64.52;100199.53;5074465;28;20287;-86
2022/04/24 06:33:00;;;;;;;8.52;5.65;;;;;;;9.47;65.20;100203.56;5088589;28;20028;-87
2022/04/24 06:35:26;;;;;;;7.60;5.65;;;;;;;9.55;64.42;100212.94;5087512;28;20025;-87
2022/04/24 06:37:53;;;;;;;6.50;5.80;;;;;;;9.64;63.70;100208.66;5066471;28;20037;-85
2022/04/24 06:40:19;;;;;;;6.57;4.70;;;;;;;9.65;63.25;100210.25;5060542;28;20585;-86
2022/04/24 06:42:59;;;;;;;9.18;5.35;;;;;;;9.72;63.48;100210.00;5086018;28;20031;-86
2022/04/24 06:45:27;;;;;;;9.55;5.20;;;;;;;9.75;63.55;100214.81;5098057;28;20032;-86
2022/04/24 06:47:57;;;;;;;8.47;5.27;;;;;;;9.79;63.65;100210.53;5105754;28;20028;-85
2022/04/24 06:50:24;;;;;;;10.43;5.83;;;;;;;9.85;63.02;100219.38;5087788;28;20318;-85
2022/04/24 06:52:57;;;;;;;8.20;5.30;;;;;;;9.95;63.24;100215.91;5050009;28;20023;-86
2022/04/24 06:55:23;;;;;;;7.20;5.72;;;;;;;10.03;62.24;100217.22;5079134;28;20028;-86
2022/04/24 06:57:51;;;;;;;6.72;4.78;;;;;;;10.11;61.75;100219.38;5085385;28;20414;-87
2022/04/24 07:00:19;;;;;;;9.88;5.32;;;;;;;10.19;61.91;100228.72;5090887;28;20394;-86
2022/04/24 07:02:45;;;;;;;7.13;5.00;;;;;;;10.23;61.16;100219.88;5074687;28;20059;-85
2022/04/24 07:05:11;;;;;;;9.40;5.25;;;;;;;10.34;61.57;100218.00;5067779;28;20043;-86
2022/04/24 07:07:36;;;;;;;8.63;6.13;;;;;;;10.41;61.54;100215.06;5086167;28;20037;-87
2022/04/24 07:10:02;;;;;;;7.63;5.90;;;;;;;10.53;60.73;100207.53;5069199;28;20024;-85
2022/04/24 07:12:29;;;;;;;7.40;5.87;;;;;;;10.62;59.90;100215.00;5069695;28;20021;-85
2022/04/24 07:14:55;;;;;;;8.07;5.47;;;;;;;10.69;59.64;100202.94;5069557;28;20017;-86
2022/04/24 07:17:21;;;;;;;6.67;5.97;;;;;;;10.76;59.58;100221.38;5071043;28;20119;-86
2022/04/24 07:19:47;;;;;;;8.00;5.80;;;;;;;10.81;59.77;100218.69;5080231;28;20032;-86
2022/04/24 07:22:12;;;;;;;10.25;5.53;;;;;;;10.87;59.24;100227.50;5068345;28;20039;-85
2022/04/24 07:24:37;;;;;;;11.10;6.10;;;;;;;10.92;58.91;100224.81;5073513;28;20023;-87
2022/04/24 07:27:03;;;;;;;7.13;5.60;;;;;;;11.03;58.57;100230.94;5086412;28;20110;-85
2022/04/24 07:29:28;;;;;;;10.83;6.43;;;;;;;11.06;58.25;100223.13;5065657;28;20032;-86
2022/04/24 07:31:53;;;;;;;7.57;5.43;;;;;;;11.12;58.18;100217.75;5068663;28;20027;-86
2022/04/24 07:34:19;;;;;;;9.60;5.70;;;;;;;11.17;57.97;100223.91;5088488;28;20294;-86
2022/04/24 07:36:44;;;;;;;8.10;5.78;;;;;;;11.24;57.77;100231.63;5084241;28;20060;-87
2022/04/24 07:39:10;;;;;;;8.67;6.00;;;;;;;11.30;58.30;100230.53;5083646;28;20476;-86
2022/04/24 07:41:36;;;;;;;10.43;6.40;;;;;;;11.39;57.03;100235.31;5093886;28;20091;-88
2022/04/24 07:44:02;;;;;;;8.05;6.15;;;;;;;11.48;57.38;100236.34;5085103;28;20025;-86
2022/04/24 07:46:27;;;;;;;8.93;6.20;;;;;;;11.53;56.96;100230.91;5072293;28;20111;-90
2022/04/24 07:48:53;;;;;;;7.97;5.80;;;;;;;11.62;55.37;100231.94;5065476;28;20037;-88
2022/04/24 07:51:18;;;;;;;13.07;6.47;;;;;;;11.65;56.49;100235.94;5073853;28;20111;-88
2022/04/24 07:53:44;;;;;;;9.10;6.00;;;;;;;11.72;56.91;100231.06;5062535;28;20387;-87
2022/04/24 07:56:10;;;;;;;6.80;6.05;;;;;;;11.83;56.16;100229.09;5073672;28;20052;-87
2022/04/24 07:58:35;;;;;;;9.90;6.47;;;;;;;11.90;54.97;100224.19;5074000;28;20012;-88
2022/04/24 08:01:00;;;;;;;8.50;6.37;;;;;;;11.97;54.98;100235.44;5075621;28;20073;-87
2022/04/24 08:03:26;;;;;;;7.27;6.03;;;;;;;12.03;54.57;100235.41;5061468;28;20146;-87
2022/04/24 08:05:51;;;;;;;7.40;5.90;;;;;;;12.05;54.96;100238.63;5076361;28;20158;-88
2022/04/24 08:08:22;;;;;;;9.88;6.82;;;;;;;12.16;54.50;100242.81;5077521;28;20016;-88
2022/04/24 08:10:55;;;;;;;10.93;6.43;;;;;;;12.25;54.68;100238.41;5073151;28;20036;-87
2022/04/24 08:13:22;;;;;;;9.07;6.67;;;;;;;12.38;54.13;100245.00;5073090;28;20047;-88
2022/04/24 08:15:48;;;;;;;9.27;6.23;;;;;;;12.54;53.74;100237.59;5074500;28;20381;-87
2022/04/24 08:18:14;;;;;;;8.70;6.40;;;;;;;12.71;53.86;100247.09;5069635;28;20933;-86
2022/04/24 08:20:41;;;;;;;7.20;6.10;;;;;;;12.87;52.58;100240.47;5068298;28;20020;-87
2022/04/24 08:23:10;;;;;;;8.68;6.13;;;;;;;13.03;52.48;100242.94;5070343;28;20036;-87
2022/04/24 08:25:37;;;;;;;12.70;7.00;;;;;;;13.23;52.68;100247.28;5069677;28;20031;-86
2022/04/24 08:28:07;;;;;;;11.05;6.82;;;;;;;13.33;50.87;100247.13;5073748;28;20064;-86
2022/04/24 08:30:34;;;;;;;13.10;5.90;;;;;;;13.36;50.45;100245.75;5073406;28;20032;-87
2022/04/24 08:32:59;;;;;;;10.40;6.90;;;;;;;13.46;51.04;100242.94;5056798;28;20513;-88
2022/04/24 08:35:25;;;;;;;8.93;7.27;;;;;;;13.59;50.95;100246.00;5058913;28;20068;-93
2022/04/24 08:37:52;;;;;;;7.97;5.63;;;;;;;13.75;50.49;100250.03;5069013;28;20033;-93
2022/04/24 08:40:24;;;;;;;11.02;7.57;;;;;;;13.91;50.07;100249.81;5056990;28;20031;-93
2022/04/24 08:42:51;;;;;;;9.77;6.53;;;;;;;14.02;49.52;100250.44;5073338;28;20020;-94
2022/04/24 08:45:17;;;;;;;9.68;6.95;;;;;;;14.06;48.59;100252.25;5065352;28;20031;-95
2022/04/24 08:47:44;;;;;;;8.65;6.38;;;;;;;14.13;48.87;100259.16;5060952;28;20032;-93
2022/04/24 08:50:11;;;;;;;10.48;7.25;;;;;;;14.27;48.20;100256.50;5076525;23;20045;-94
2022/04/24 08:52:37;;;;;;;12.07;6.53;;;;;;;14.32;48.12;100245.63;5058331;28;20036;-95
2022/04/24 08:55:03;;;;;;;12.77;7.10;;;;;;;14.39;47.59;100248.72;5054879;28;20025;-94
2022/04/24 08:57:30;;;;;;;11.00;7.20;;;;;;;14.46;47.55;100261.81;5055132;28;20037;-94
2022/04/24 08:59:57;;;;;;;10.55;6.82;;;;;;;14.61;46.84;100260.72;5056709;28;20506;-94
2022/04/24 09:02:23;;;;;;;11.07;7.35;;;;;;;14.73;47.04;100254.88;5055085;28;20452;-93
2022/04/24 09:04:49;;;;;;;12.90;7.05;;;;;;;14.86;46.03;100256.75;5059348;28;20025;-94
2022/04/24 09:07:17;;;;;;;12.90;7.65;;;;;;;14.95;46.35;100262.25;5056515;28;20031;-94
2022/04/24 09:09:50;;;;;;;10.98;7.70;;;;;;;15.00;45.94;100264.84;5065937;28;20067;-95
2022/04/24 09:12:17;;;;;;;11.15;7.40;;;;;;;15.11;46.59;100258.13;5079604;28;20123;-95
2022/04/24 09:14:50;;;;;;;7.47;6.63;;;;;;;15.26;46.01;100264.31;5059476;28;20043;-95
2022/04/24 09:17:18;;;;;;;10.33;7.27;;;;;;;15.36;46.06;100257.88;5059426;28;20425;-95
2022/04/24 09:19:43;;;;;;;10.57;7.35;;;;;;;15.51;45.14;100257.56;5057075;28;20025;-93
2022/04/24 09:22:10;;;;;;;11.43;7.78;;;;;;;15.61;44.78;100264.63;5053810;28;20040;-93
2022/04/24 09:24:55;;;;;;;13.53;7.60;;;;;;;15.73;45.75;100266.75;5048972;28;20021;-93
2022/04/24 09:27:22;;;;;;;11.20;6.82;;;;;;;15.78;44.10;100261.25;5067415;28;20043;-91
2022/04/24 09:29:54;;;;;;;9.70;7.65;;;;;;;15.74;43.94;100261.06;5070456;28;20035;-90
2022/04/24 09:32:21;;;;;;;12.43;7.78;;;;;;;15.75;43.50;100253.75;5033125;28;20021;-89
2022/04/24 09:34:46;;;;;;;11.88;7.75;;;;;;;15.86;43.98;100257.84;5063904;28;20031;-87
2022/04/24 09:37:12;;;;;;;14.80;8.00;;;;;;;15.98;43.91;100253.78;5050196;28;20107;-89
2022/04/24 09:39:38;;;;;;;15.55;7.95;;;;;;;16.11;43.51;100262.94;5053974;28;20108;-87
2022/04/24 09:42:09;;;;;;;10.87;7.90;;;;;;;16.13;43.33;100250.69;5053955;28;20021;-87
2022/04/24 09:44:40;;;;;;;13.27;8.50;;;;;;;16.26;43.56;100259.03;5055720;28;20287;-87
2022/04/24 09:47:06;;;;;;;11.77;8.65;;;;;;;16.37;43.15;100264.97;5053158;28;20017;-87
2022/04/24 09:49:39;;;;;;;15.18;8.40;;;;;;;16.43;43.15;100259.09;5053555;28;20039;-87
2022/04/24 09:52:14;;;;;;;10.73;8.32;;;;;;;16.44;42.54;100276.16;5053483;28;20024;-87
2022/04/24 09:54:45;;;;;;;9.02;7.93;;;;;;;16.48;42.95;100263.59;5055871;28;20104;-88
2022/04/24 09:57:13;;;;;;;10.82;8.73;;;;;;;16.59;43.29;100259.50;5067941;28;20057;-87
2022/04/24 09:59:46;;;;;;;8.68;7.68;;;;;;;16.78;43.20;100264.69;5053333;28;20496;-86
2022/04/24 10:02:14;;;;;;;13.32;9.10;;;;;;;16.91;42.16;100262.16;5053795;28;20032;-86
2022/04/24 10:04:42;;;;;;;13.88;9.18;;;;;;;16.97;42.65;100274.47;5051815;28;20029;-86
2022/04/24 10:07:10;;;;;;;18.50;8.67;;;;;;;16.95;41.84;100268.59;5024082;28;20033;-86
2022/04/24 10:09:46;;;;;;;17.10;9.07;;;;;;;17.01;41.22;100261.09;5068319;28;20358;-85
2022/04/24 10:12:17;;;;;;;12.23;8.50;;;;;;;17.04;41.94;100257.78;5069551;28;20029;-87
2022/04/24 10:14:43;;;;;;;12.88;8.52;;;;;;;17.25;41.34;100266.88;5067666;28;20094;-87
2022/04/24 10:17:18;;;;;;;11.88;8.98;;;;;;;17.22;41.02;100270.22;5056004;28;20033;-87
2022/04/24 10:20:22;;;;;;;10.77;9.35;;;;;;;17.27;40.64;100269.28;5054691;28;20056;-86
2022/04/24 10:22:49;;;;;;;11.02;7.93;;;;;;;17.23;40.07;100266.41;5023177;28;20029;-87
2022/04/24 10:25:18;;;;;;;11.00;8.00;;;;;;;17.22;40.24;100272.13;5054358;28;20028;-88
2022/04/24 10:27:45;;;;;;;11.80;9.10;;;;;;;17.23;39.82;100273.72;5050102;28;20060;-88
2022/04/24 10:30:24;;;;;;;11.93;8.75;;;;;;;17.37;40.65;100279.00;5053917;28;20024;-87
2022/04/24 10:33:18;;;;;;;12.30;8.20;;;;;;;17.44;41.13;100273.09;5050629;28;20117;-86
2022/04/24 10:35:50;;;;;;;11.83;8.30;;;;;;;17.60;40.30;100271.50;5052368;28;20426;-87
2022/04/24 10:38:17;;;;;;;11.40;8.50;;;;;;;17.59;38.84;100264.50;5053370;28;20029;-87
2022/04/24 10:40:56;;;;;;;12.20;7.95;;;;;;;17.60;39.15;100281.56;5071915;28;20565;-87
2022/04/24 10:43:23;;;;;;;11.93;7.78;;;;;;;17.59;38.79;100267.22;5056951;28;20036;-87
2022/04/24 10:45:53;;;;;;;10.13;7.97;;;;;;;17.63;39.04;100270.88;5051372;28;20059;-92
2022/04/24 10:48:19;;;;;;;11.05;6.80;;;;;;;17.62;39.83;100273.91;5065093;23;20049;-89
2022/04/24 10:50:48;;;;;;;9.82;8.02;;;;;;;17.54;39.32;100272.78;5053533;28;20033;-90
2022/04/24 10:53:14;;;;;;;12.20;7.55;;;;;;;17.63;37.89;100261.94;5052434;28;20052;-90
2022/04/24 10:55:40;;;;;;;10.33;7.43;;;;;;;17.79;38.13;100283.94;5058034;28;20032;-96
2022/04/24 10:58:05;;;;;;;8.70;6.40;;;;;;;17.82;38.61;100267.06;5072227;28;20076;-96
2022/04/24 11:00:36;;;;;;;9.10;7.37;;;;;;;17.79;39.26;100268.50;5073411;28;20079;-95
2022/04/24 11:03:07;;;;;;;8.52;6.80;;;;;;;17.94;39.53;100264.47;5057511;28;20052;-96
2022/04/24 11:10:44;;;;;;;12.68;7.03;;;;;;;18.31;37.21;100261.41;5622454;23;20083;-96
2022/04/24 11:16:01;;;;;;;8.13;7.00;;;;;;;18.34;38.21;100254.53;5016076;28;20428;-94
2022/04/24 11:18:36;;;;;;;12.10;7.60;;;;;;;18.34;38.75;100265.38;5044466;28;20113;-93
2022/04/24 11:21:19;;;;;;;12.48;6.47;;;;;;;18.46;37.80;100250.00;5040159;28;20457;-92
2022/04/24 11:24:18;;;;;;;;;;;;;;;;;;;;;
2022/04/24 11:27:04;;;;;;;9.67;7.20;;;;;;;18.66;37.68;100265.88;5045183;28;20707;-95
2022/04/24 11:29:33;;;;;;;9.73;7.40;;;;;;;18.52;37.81;100266.91;5053112;28;20052;-93
2022/04/24 11:32:00;;;;;;;9.70;7.00;;;;;;;18.25;37.93;100260.78;5062845;28;20629;-93
2022/04/24 11:34:35;;;;;;;10.93;6.63;;;;;;;18.35;38.51;100253.41;5048870;28;20034;-93
2022/04/24 11:37:04;;;;;;;12.07;7.07;;;;;;;18.44;37.94;100262.31;5033297;28;20472;-91
2022/04/24 11:39:31;;;;;;;12.23;6.35;;;;;;;18.16;37.68;100257.28;5051286;28;20085;-91
2022/04/24 11:42:00;;;;;;;10.82;6.72;;;;;;;18.28;38.33;100264.75;5044313;28;20025;-94
2022/04/24 11:50:14;;;;;;;11.07;6.33;;;;;;;18.74;37.42;100265.06;5046441;28;20095;-96
2022/04/24 11:53:01;;;;;;;;;;;;;;;;;;;;;
2022/04/24 11:56:11;;;;;;;7.63;6.00;;;;;;;18.68;37.10;100261.75;5019628;28;20533;-96
2022/04/24 11:58:56;;;;;;;7.72;6.53;;;;;;;18.53;36.62;100251.44;5018431;28;20448;-93
2022/04/24 12:01:31;;;;;;;17.52;6.22;;;;;;;18.67;37.50;100262.84;5028862;28;20473;-94
2022/04/24 12:03:59;;;;;;;7.05;5.90;;;;;;;19.00;37.46;100275.00;5034142;28;20021;-93
2022/04/24 12:06:32;;;;;;;8.52;6.50;;;;;;;18.94;37.03;100274.38;5031450;28;20038;-94
2022/04/24 12:09:10;;;;;;;7.45;6.30;;;;;;;18.87;37.31;100280.31;5033030;28;20505;-95
2022/04/24 12:11:36;;;;;;;9.07;5.78;;;;;;;19.03;35.99;100263.47;5033024;28;20030;-93
2022/04/24 12:14:18;;;;;;;8.27;6.43;;;;;;;19.00;36.31;100261.41;5033699;28;20029;-94
2022/04/24 12:16:47;;;;;;;12.90;6.65;;;;;;;18.64;36.17;100279.78;5034087;28;20484;-94
2022/04/24 12:19:17;;;;;;;12.35;6.22;;;;;;;18.15;36.85;100267.34;5033360;28;20061;-93
2022/04/24 12:21:55;;;;;;;6.78;6.07;;;;;;;18.13;37.17;100269.59;5032899;28;20029;-95
2022/04/24 12:24:21;;;;;;;13.32;6.18;;;;;;;18.11;37.50;100271.00;5034610;28;20087;-95
2022/04/24 12:30:24;;;;;;;7.27;6.20;;;;;;;18.69;36.39;100267.94;5108655;22;20052;-93
2022/04/24 12:32:50;;;;;;;8.40;5.83;;;;;;;18.89;36.37;100267.22;5072130;28;20389;-93
2022/04/24 12:35:33;;;;;;;9.38;5.95;;;;;;;19.14;36.02;100296.47;5074028;28;20137;-94
2022/04/24 12:38:27;;;;;;;10.35;6.40;;;;;;;19.16;35.49;100288.81;5072825;28;20060;-93
2022/04/24 12:40:59;;;;;;;12.60;5.88;;;;;;;19.36;35.80;100306.22;5065084;28;20027;-94
2022/04/24 12:43:33;;;;;;;11.00;6.00;;;;;;;19.21;35.25;100283.97;5082961;28;20111;-96
2022/04/24 12:46:09;;;;;;;;;;;;;;;;;;;;;
2022/04/24 12:48:50;;;;;;;6.13;5.53;;;;;;;19.50;35.58;100293.22;5060097;28;20108;-95
2022/04/24 12:51:29;;;;;;;7.97;5.50;;;;;;;19.58;34.89;100279.88;5044494;28;20082;-96
2022/04/24 12:54:11;;;;;;;10.27;5.40;;;;;;;19.89;34.74;100273.25;5064906;28;20272;-96
2022/04/24 12:56:37;;;;;;;6.80;5.38;;;;;;;20.04;33.72;100299.00;5158890;22;20087;-94
2022/04/24 12:59:04;;;;;;;12.23;5.18;;;;;;;20.22;33.86;100283.31;5061273;28;20082;-96
2022/04/24 13:01:29;;;;;;;9.85;5.72;;;;;;;20.24;33.41;100283.78;5264337;22;20495;-94
2022/04/24 13:04:29;;;;;;;6.07;5.47;;;;;;;20.45;33.25;100297.28;5100644;28;20055;-95
2022/04/24 13:07:13;;;;;;;5.43;4.82;;;;;;;20.52;33.15;100281.22;5116931;28;20012;-96
2022/04/24 13:12:49;;;;;;;8.60;5.10;;;;;;;20.86;32.10;100281.13;5092712;28;20047;-95
2022/04/24 13:15:21;;;;;;;10.65;5.68;;;;;;;20.52;32.19;100285.84;5094854;28;20021;-95
2022/04/24 13:20:33;;;;;;;6.53;5.13;;;;;;;19.85;33.53;100291.31;5100185;28;20063;-95
2022/04/24 13:22:58;;;;;;;7.87;4.80;;;;;;;20.31;33.11;100296.81;5101436;28;20001;-96